Time;durP1;ratioP1;P1;durP2;ratioP2;P2;SDS_P1;SDS_P2;PMS_P1;PMS_P2;Temp;Humidity;BMP_temperature;BMP_pressure;BME280_temperature;BME280_humidity;BME280_pressure;Samples;Min_cycle;Max_cycle;Signal;HPM_P1;HPM_P2
2021/12/27 00:01:54;;;;;;;31.20;17.17;;;;;;;;;;5071356;28;20637;-73
2021/12/27 00:04:19;;;;;;;30.80;16.47;;;;;;;;;;5072216;28;20692;-73
2021/12/27 00:06:44;;;;;;;29.60;17.50;;;;;;;;;;5071625;28;20857;-72
2021/12/27 00:09:09;;;;;;;26.00;15.93;;;;;;;;;;5071459;28;20211;-73
2021/12/27 00:11:35;;;;;;;32.90;17.53;;;;;;;;;;5066570;28;20189;-73
2021/12/27 00:14:00;;;;;;;29.27;17.00;;;;;;;;;;5066160;28;20180;-72
2021/12/27 00:16:25;;;;;;;29.93;16.27;;;;;;;;;;5069520;28;20176;-72
2021/12/27 00:18:50;;;;;;;30.90;17.70;;;;;;;;;;5075391;28;20211;-72
2021/12/27 00:21:16;;;;;;;31.67;18.47;;;;;;;;;;5068374;28;20207;-73
2021/12/27 00:23:41;;;;;;;27.10;16.77;;;;;;;;;;5065977;28;20664;-73
2021/12/27 00:26:06;;;;;;;28.43;17.97;;;;;;;;;;5067076;28;20212;-73
2021/12/27 00:28:33;;;;;;;24.70;17.03;;;;;;;;;;5066629;28;20173;-73
2021/12/27 00:30:59;;;;;;;28.70;16.87;;;;;;;;;;5066188;28;20579;-74
2021/12/27 00:33:24;;;;;;;26.77;16.93;;;;;;;;;;5069619;28;20184;-76
2021/12/27 00:35:49;;;;;;;25.10;16.17;;;;;;;;;;5070375;28;20204;-74
2021/12/27 00:38:15;;;;;;;26.90;16.57;;;;;;;;;;5070176;28;20946;-75
2021/12/27 00:40:40;;;;;;;28.23;16.83;;;;;;;;;;5070392;28;20626;-73
2021/12/27 00:43:05;;;;;;;29.93;17.07;;;;;;;;;;5065552;28;20176;-73
2021/12/27 00:45:30;;;;;;;28.00;16.97;;;;;;;;;;5084420;28;20226;-74
2021/12/27 00:47:56;;;;;;;32.17;17.90;;;;;;;;;;5086523;28;20192;-74
2021/12/27 00:50:21;;;;;;;28.67;18.17;;;;;;;;;;5080308;28;20196;-74
2021/12/27 00:52:46;;;;;;;28.50;17.13;;;;;;;;;;5081891;28;20184;-74
2021/12/27 00:55:12;;;;;;;30.13;16.90;;;;;;;;;;5082411;28;20181;-75
2021/12/27 00:57:37;;;;;;;28.57;17.00;;;;;;;;;;5083585;28;20200;-74
2021/12/27 01:00:05;;;;;;;24.63;16.53;;;;;;;;;;5090843;22;20225;-74
2021/12/27 01:02:30;;;;;;;27.67;17.13;;;;;;;;;;5056148;28;20178;-75
2021/12/27 01:04:55;;;;;;;30.47;19.03;;;;;;;;;;5053518;28;20216;-74
2021/12/27 01:07:20;;;;;;;27.03;16.93;;;;;;;;;;5055512;28;20689;-74
2021/12/27 01:12:31;;;;;;;25.97;16.50;;;;;;;;;;5051419;28;21738;-75
2021/12/27 01:17:31;;;;;;;25.20;17.10;;;;;;;;;;5039577;28;20263;-74
2021/12/27 01:19:56;;;;;;;28.50;16.77;;;;;;;;;;5039416;28;20201;-76
2021/12/27 01:22:21;;;;;;;27.37;17.27;;;;;;;;;;5036445;28;20265;-74
2021/12/27 01:24:46;;;;;;;30.13;18.90;;;;;;;;;;5035302;28;20553;-77
2021/12/27 01:27:12;;;;;;;25.27;16.63;;;;;;;;;;5036454;28;20251;-77
2021/12/27 01:29:37;;;;;;;25.97;17.57;;;;;;;;;;5038033;28;20195;-74
2021/12/27 01:32:02;;;;;;;25.13;17.67;;;;;;;;;;5037510;28;20220;-75
2021/12/27 01:34:28;;;;;;;24.17;16.13;;;;;;;;;;5038588;28;20182;-74
2021/12/27 01:36:56;;;;;;;27.20;17.70;;;;;;;;;;5036924;28;20796;-75
2021/12/27 01:39:22;;;;;;;23.87;16.63;;;;;;;;;;5036672;28;20185;-75
2021/12/27 01:41:47;;;;;;;25.13;16.23;;;;;;;;;;5035766;28;20185;-75
2021/12/27 01:44:13;;;;;;;26.23;18.73;;;;;;;;;;5034353;28;20231;-75
2021/12/27 01:46:39;;;;;;;26.57;18.23;;;;;;;;;;5036190;28;20236;-75
2021/12/27 01:49:05;;;;;;;25.43;16.57;;;;;;;;;;5040924;28;20182;-75
2021/12/27 01:51:31;;;;;;;24.63;15.83;;;;;;;;;;5034540;28;20687;-77
2021/12/27 01:53:57;;;;;;;25.93;16.40;;;;;;;;;;5034798;28;20538;-76
2021/12/27 01:56:22;;;;;;;25.90;16.80;;;;;;;;;;5035628;28;20209;-75
2021/12/27 01:58:49;;;;;;;26.90;17.70;;;;;;;;;;5035519;28;20629;-77
2021/12/27 02:01:14;;;;;;;27.67;17.97;;;;;;;;;;5037137;28;20761;-74
2021/12/27 02:03:41;;;;;;;26.87;16.40;;;;;;;;;;5035207;28;20204;-77
2021/12/27 02:06:06;;;;;;;30.53;18.47;;;;;;;;;;5037091;28;20557;-77
2021/12/27 02:08:32;;;;;;;28.93;17.33;;;;;;;;;;5033129;28;20189;-76
2021/12/27 02:10:57;;;;;;;25.37;16.37;;;;;;;;;;5035472;28;22543;-76
2021/12/27 02:13:23;;;;;;;24.53;17.13;;;;;;;;;;5033903;28;20226;-76
2021/12/27 02:15:49;;;;;;;32.43;17.73;;;;;;;;;;5035499;28;20186;-75
2021/12/27 02:18:14;;;;;;;29.63;18.27;;;;;;;;;;5034940;28;20209;-76
2021/12/27 02:20:41;;;;;;;30.83;19.53;;;;;;;;;;5036692;28;20192;-75
2021/12/27 02:23:11;;;;;;;32.57;17.63;;;;;;;;;;5033969;28;20180;-75
2021/12/27 02:25:36;;;;;;;33.40;18.67;;;;;;;;;;5034988;28;20173;-76
2021/12/27 02:28:03;;;;;;;31.27;18.43;;;;;;;;;;5034082;28;20188;-76
2021/12/27 02:30:30;;;;;;;35.80;19.73;;;;;;;;;;5032729;28;20209;-76
2021/12/27 02:32:57;;;;;;;33.47;20.47;;;;;;;;;;5035202;28;20181;-76
2021/12/27 02:35:24;;;;;;;29.80;17.57;;;;;;;;;;5039394;28;20186;-75
2021/12/27 02:37:50;;;;;;;30.53;18.63;;;;;;;;;;5043322;28;20298;-76
2021/12/27 02:40:16;;;;;;;30.90;19.50;;;;;;;;;;5047795;28;20225;-75
2021/12/27 02:42:53;;;;;;;30.57;18.60;;;;;;;;;;5050159;28;20173;-75
2021/12/27 02:45:18;;;;;;;31.30;18.47;;;;;;;;;;5048654;28;20181;-75
2021/12/27 02:47:43;;;;;;;34.20;18.83;;;;;;;;;;5050150;28;20184;-76
2021/12/27 02:50:09;;;;;;;34.60;19.87;;;;;;;;;;5037853;28;20201;-75
2021/12/27 02:52:34;;;;;;;33.10;19.70;;;;;;;;;;5037369;28;20598;-75
2021/12/27 02:54:59;;;;;;;36.57;20.17;;;;;;;;;;5036657;28;20771;-75
2021/12/27 02:57:24;;;;;;;31.27;19.17;;;;;;;;;;5036403;28;20217;-75
2021/12/27 02:59:49;;;;;;;33.57;20.73;;;;;;;;;;5033786;28;20543;-76
2021/12/27 03:02:14;;;;;;;34.30;19.60;;;;;;;;;;5033429;28;20271;-75
2021/12/27 03:04:40;;;;;;;36.83;19.23;;;;;;;;;;5037903;28;20186;-74
2021/12/27 03:07:05;;;;;;;38.30;20.50;;;;;;;;;;5034159;28;20193;-75
2021/12/27 03:09:30;;;;;;;34.37;20.50;;;;;;;;;;5035030;28;20441;-76
2021/12/27 03:11:55;;;;;;;32.60;20.40;;;;;;;;;;5035243;28;20244;-76
2021/12/27 03:14:23;;;;;;;35.03;19.73;;;;;;;;;;5035973;28;20187;-76
2021/12/27 03:16:48;;;;;;;37.33;19.97;;;;;;;;;;5032228;28;21625;-75
2021/12/27 03:19:13;;;;;;;35.80;21.17;;;;;;;;;;5033460;28;20235;-75
2021/12/27 03:21:38;;;;;;;36.97;20.90;;;;;;;;;;5033337;28;20682;-75
2021/12/27 03:24:04;;;;;;;39.43;20.13;;;;;;;;;;5035275;28;20186;-75
2021/12/27 03:26:29;;;;;;;34.47;20.97;;;;;;;;;;5033763;28;20186;-75
2021/12/27 03:28:54;;;;;;;36.67;19.30;;;;;;;;;;5048383;28;20181;-75
2021/12/27 03:31:19;;;;;;;42.43;22.00;;;;;;;;;;5032064;28;20213;-75
2021/12/27 03:33:45;;;;;;;38.03;20.77;;;;;;;;;;5033762;28;20272;-76
2021/12/27 03:36:10;;;;;;;35.07;20.40;;;;;;;;;;5033398;28;20272;-75
2021/12/27 03:38:41;;;;;;;37.30;21.37;;;;;;;;;;5030683;28;20776;-75
2021/12/27 03:41:08;;;;;;;36.13;21.27;;;;;;;;;;5032593;28;20299;-75
2021/12/27 03:43:34;;;;;;;39.97;20.57;;;;;;;;;;5033451;28;20177;-75
2021/12/27 03:45:59;;;;;;;35.27;19.73;;;;;;;;;;5032632;28;20634;-76
2021/12/27 03:48:24;;;;;;;32.13;19.80;;;;;;;;;;5035506;28;20184;-76
2021/12/27 03:50:50;;;;;;;33.13;20.30;;;;;;;;;;5032888;28;20215;-75
2021/12/27 03:53:15;;;;;;;30.93;18.40;;;;;;;;;;5033745;28;20252;-75
2021/12/27 03:55:40;;;;;;;29.03;17.53;;;;;;;;;;5033699;28;20185;-75
2021/12/27 03:58:11;;;;;;;26.60;17.37;;;;;;;;;;5032955;28;20609;-76
2021/12/27 04:00:50;;;;;;;27.47;19.00;;;;;;;;;;5032710;28;20213;-76
2021/12/27 04:03:16;;;;;;;31.73;18.47;;;;;;;;;;5031363;28;21272;-75
2021/12/27 04:05:42;;;;;;;29.60;17.90;;;;;;;;;;5036216;28;20192;-76
2021/12/27 04:08:09;;;;;;;26.47;19.53;;;;;;;;;;5033517;28;20186;-75
2021/12/27 04:10:36;;;;;;;27.33;16.93;;;;;;;;;;5033026;28;20205;-76
2021/12/27 04:13:01;;;;;;;26.03;17.27;;;;;;;;;;5034363;28;20186;-76
2021/12/27 04:15:26;;;;;;;25.40;16.03;;;;;;;;;;5040066;28;20207;-75
2021/12/27 04:17:51;;;;;;;24.27;16.20;;;;;;;;;;5038608;28;20213;-75
2021/12/27 04:20:17;;;;;;;25.00;17.03;;;;;;;;;;5037237;28;20821;-75
2021/12/27 04:22:42;;;;;;;27.87;16.70;;;;;;;;;;5037751;28;20184;-75
2021/12/27 04:25:07;;;;;;;23.37;15.40;;;;;;;;;;5035223;28;20197;-75
2021/12/27 04:27:32;;;;;;;23.97;15.53;;;;;;;;;;5039277;28;20186;-76
2021/12/27 04:29:58;;;;;;;23.30;15.87;;;;;;;;;;5035941;28;20618;-75
2021/12/27 04:32:23;;;;;;;23.83;15.37;;;;;;;;;;5034199;28;20299;-75
2021/12/27 04:34:48;;;;;;;26.70;16.00;;;;;;;;;;5035786;28;20176;-75
2021/12/27 04:37:13;;;;;;;23.37;15.50;;;;;;;;;;5036862;28;20592;-76
2021/12/27 04:39:38;;;;;;;27.20;16.63;;;;;;;;;;5037494;28;20658;-75
2021/12/27 04:42:04;;;;;;;22.53;14.83;;;;;;;;;;5034514;28;20192;-75
2021/12/27 04:44:30;;;;;;;25.27;14.87;;;;;;;;;;5035283;28;20198;-75
2021/12/27 04:46:55;;;;;;;24.97;14.57;;;;;;;;;;5036696;28;20193;-75
2021/12/27 04:49:20;;;;;;;25.40;16.80;;;;;;;;;;5037679;28;20968;-75
2021/12/27 04:51:45;;;;;;;30.63;17.57;;;;;;;;;;5041263;28;20197;-75
2021/12/27 04:54:11;;;;;;;26.43;16.50;;;;;;;;;;5036325;28;20272;-77
2021/12/27 04:56:36;;;;;;;26.17;16.17;;;;;;;;;;5036331;28;20174;-75
2021/12/27 04:59:01;;;;;;;26.73;16.43;;;;;;;;;;5041027;28;20224;-75
2021/12/27 05:01:27;;;;;;;37.83;17.73;;;;;;;;;;5049689;28;20280;-75
2021/12/27 05:03:52;;;;;;;27.87;16.73;;;;;;;;;;5050326;28;20170;-74
2021/12/27 05:06:17;;;;;;;34.00;16.73;;;;;;;;;;5050767;28;20184;-74
2021/12/27 05:08:43;;;;;;;35.40;16.70;;;;;;;;;;5036076;28;20244;-75
2021/12/27 05:11:08;;;;;;;27.83;16.60;;;;;;;;;;5034570;28;20209;-75
2021/12/27 05:13:33;;;;;;;32.10;17.57;;;;;;;;;;5035660;28;20191;-74
2021/12/27 05:15:59;;;;;;;35.00;18.40;;;;;;;;;;5036791;28;20225;-75
2021/12/27 05:18:25;;;;;;;34.43;17.87;;;;;;;;;;5036998;28;20213;-75
2021/12/27 05:20:50;;;;;;;32.77;17.33;;;;;;;;;;5035683;28;20570;-75
2021/12/27 05:23:15;;;;;;;37.70;18.47;;;;;;;;;;5038663;28;20213;-75
2021/12/27 05:25:41;;;;;;;39.33;19.40;;;;;;;;;;5033658;28;20246;-75
2021/12/27 05:28:06;;;;;;;47.63;19.90;;;;;;;;;;5035784;28;20283;-75
2021/12/27 05:30:31;;;;;;;30.90;19.13;;;;;;;;;;5034306;28;20258;-75
2021/12/27 05:32:56;;;;;;;34.77;19.93;;;;;;;;;;5035925;28;20284;-75
2021/12/27 05:35:21;;;;;;;39.10;17.87;;;;;;;;;;5034805;28;20699;-75
2021/12/27 05:37:47;;;;;;;39.33;19.17;;;;;;;;;;5035851;28;20285;-75
2021/12/27 05:40:13;;;;;;;46.67;18.60;;;;;;;;;;5033501;28;20223;-75
2021/12/27 05:42:39;;;;;;;47.33;21.07;;;;;;;;;;5034345;28;20243;-75
2021/12/27 05:45:05;;;;;;;47.73;20.77;;;;;;;;;;5035329;28;20181;-75
2021/12/27 05:47:30;;;;;;;49.73;20.37;;;;;;;;;;5035153;28;20227;-75
2021/12/27 05:49:55;;;;;;;45.90;21.57;;;;;;;;;;5037698;28;20194;-75
2021/12/27 05:52:20;;;;;;;43.90;20.93;;;;;;;;;;5031008;28;20295;-74
2021/12/27 05:54:45;;;;;;;47.57;20.93;;;;;;;;;;5035026;28;20271;-76
2021/12/27 05:57:11;;;;;;;40.03;20.17;;;;;;;;;;5035115;28;20280;-74
2021/12/27 05:59:36;;;;;;;44.10;21.10;;;;;;;;;;5033617;28;20279;-75
2021/12/27 06:02:01;;;;;;;37.17;19.77;;;;;;;;;;4998647;28;1062093;-75
2021/12/27 06:04:26;;;;;;;60.93;23.30;;;;;;;;;;5039241;28;20268;-75
2021/12/27 06:06:51;;;;;;;53.53;22.60;;;;;;;;;;5035745;28;20173;-75
2021/12/27 06:09:17;;;;;;;44.00;20.67;;;;;;;;;;5034902;28;20245;-75
2021/12/27 06:11:42;;;;;;;42.90;20.80;;;;;;;;;;5034560;28;20205;-75
2021/12/27 06:14:07;;;;;;;51.63;20.93;;;;;;;;;;5034806;28;20267;-74
2021/12/27 06:16:32;;;;;;;62.10;20.97;;;;;;;;;;5034573;28;20265;-74
2021/12/27 06:18:58;;;;;;;44.37;20.57;;;;;;;;;;5034781;28;20300;-75
2021/12/27 06:21:23;;;;;;;40.07;20.17;;;;;;;;;;5036663;28;20244;-75
2021/12/27 06:23:48;;;;;;;64.43;22.50;;;;;;;;;;5049180;28;20270;-75
2021/12/27 06:26:13;;;;;;;71.53;22.97;;;;;;;;;;5036413;28;20264;-75
2021/12/27 06:28:39;;;;;;;52.93;21.57;;;;;;;;;;5034553;28;20759;-75
2021/12/27 06:31:04;;;;;;;56.43;20.10;;;;;;;;;;5036298;28;20216;-75
2021/12/27 06:33:29;;;;;;;55.57;19.97;;;;;;;;;;5032192;28;20189;-75
2021/12/27 06:35:55;;;;;;;66.13;21.30;;;;;;;;;;5035395;28;21138;-75
2021/12/27 06:38:23;;;;;;;51.53;20.93;;;;;;;;;;5032777;28;20217;-75
2021/12/27 06:40:49;;;;;;;54.93;23.50;;;;;;;;;;5033801;28;20201;-76
2021/12/27 06:43:14;;;;;;;73.47;24.57;;;;;;;;;;5032656;28;20781;-74
2021/12/27 06:45:39;;;;;;;62.33;22.03;;;;;;;;;;5032406;28;20271;-76
2021/12/27 06:48:05;;;;;;;48.03;21.77;;;;;;;;;;5036826;28;20216;-76
2021/12/27 06:50:30;;;;;;;38.77;20.00;;;;;;;;;;5033306;28;20207;-75
2021/12/27 06:52:55;;;;;;;75.33;24.13;;;;;;;;;;5030881;28;20182;-75
2021/12/27 06:55:20;;;;;;;53.47;23.60;;;;;;;;;;5035136;28;20190;-76
2021/12/27 06:57:46;;;;;;;67.10;22.90;;;;;;;;;;5034783;28;20201;-76
2021/12/27 07:00:12;;;;;;;43.00;20.50;;;;;;;;;;5032459;28;20230;-75
2021/12/27 07:02:37;;;;;;;54.80;21.57;;;;;;;;;;5035503;28;20170;-75
2021/12/27 07:05:03;;;;;;;59.97;22.73;;;;;;;;;;5033406;28;21195;-75
2021/12/27 07:07:28;;;;;;;43.57;20.63;;;;;;;;;;5048551;28;20187;-75
2021/12/27 07:09:53;;;;;;;50.63;22.83;;;;;;;;;;5032885;28;20197;-75
2021/12/27 07:12:19;;;;;;;34.37;20.10;;;;;;;;;;5033066;28;20185;-75
2021/12/27 07:14:44;;;;;;;56.10;21.73;;;;;;;;;;5037359;28;20177;-75
2021/12/27 07:17:09;;;;;;;52.77;22.67;;;;;;;;;;5034855;28;20185;-75
2021/12/27 07:19:34;;;;;;;40.47;21.33;;;;;;;;;;5035140;28;20181;-75
2021/12/27 07:22:00;;;;;;;47.93;21.87;;;;;;;;;;5033431;28;20201;-75
2021/12/27 07:24:25;;;;;;;58.27;23.00;;;;;;;;;;5033193;28;21644;-75
2021/12/27 07:26:52;;;;;;;46.47;21.53;;;;;;;;;;5033225;28;20196;-75
2021/12/27 07:29:17;;;;;;;56.30;23.27;;;;;;;;;;5035792;28;20181;-75
2021/12/27 07:31:42;;;;;;;50.77;21.80;;;;;;;;;;5033718;28;21566;-75
2021/12/27 07:34:08;;;;;;;40.17;21.37;;;;;;;;;;5031216;28;20274;-75
2021/12/27 07:36:33;;;;;;;52.80;21.50;;;;;;;;;;5031998;28;20241;-75
2021/12/27 07:39:00;;;;;;;56.00;22.17;;;;;;;;;;5032085;28;20220;-75
2021/12/27 07:41:25;;;;;;;59.93;23.67;;;;;;;;;;5033621;28;20193;-75
2021/12/27 07:43:50;;;;;;;54.20;23.63;;;;;;;;;;5035749;28;20180;-75
2021/12/27 07:46:15;;;;;;;48.40;21.83;;;;;;;;;;5047667;28;20181;-75
2021/12/27 07:48:40;;;;;;;59.67;23.07;;;;;;;;;;5039237;28;20277;-75
2021/12/27 07:51:06;;;;;;;77.50;23.97;;;;;;;;;;5030282;28;22036;-75
2021/12/27 07:53:31;;;;;;;81.47;24.97;;;;;;;;;;5037334;28;20190;-75
2021/12/27 07:55:57;;;;;;;60.23;23.33;;;;;;;;;;5036371;28;20178;-75
2021/12/27 07:58:22;;;;;;;95.90;26.00;;;;;;;;;;5037891;28;20202;-75
2021/12/27 08:00:50;;;;;;;62.67;22.30;;;;;;;;;;5035626;28;20208;-75
2021/12/27 08:03:16;;;;;;;55.43;22.43;;;;;;;;;;5031232;28;20178;-75
2021/12/27 08:05:41;;;;;;;88.03;27.13;;;;;;;;;;5038843;28;20204;-75
2021/12/27 08:08:07;;;;;;;43.97;21.93;;;;;;;;;;5036579;28;20178;-75
2021/12/27 08:10:32;;;;;;;54.23;24.00;;;;;;;;;;5036266;28;20204;-75
2021/12/27 08:12:57;;;;;;;53.63;22.17;;;;;;;;;;5036796;28;20539;-75
2021/12/27 08:15:22;;;;;;;43.67;22.97;;;;;;;;;;5037453;28;20182;-74
2021/12/27 08:17:48;;;;;;;62.33;22.00;;;;;;;;;;5040620;28;20284;-74
2021/12/27 08:20:13;;;;;;;44.67;22.33;;;;;;;;;;5035761;28;20686;-76
2021/12/27 08:22:38;;;;;;;50.30;21.37;;;;;;;;;;5037808;28;20169;-75
2021/12/27 08:25:07;;;;;;;56.17;21.80;;;;;;;;;;5035074;28;20205;-76
2021/12/27 08:27:32;;;;;;;45.37;20.53;;;;;;;;;;5028632;28;21222;-75
2021/12/27 08:30:00;;;;;;;48.30;22.63;;;;;;;;;;5035490;28;20287;-75
2021/12/27 08:32:25;;;;;;;44.17;22.00;;;;;;;;;;5039353;28;20181;-75
2021/12/27 08:34:50;;;;;;;64.07;24.53;;;;;;;;;;5043257;28;20310;-75
2021/12/27 08:37:15;;;;;;;59.87;23.23;;;;;;;;;;5038599;28;20193;-75
2021/12/27 08:39:41;;;;;;;55.97;22.87;;;;;;;;;;5035953;28;20412;-75
2021/12/27 08:42:07;;;;;;;49.93;22.27;;;;;;;;;;5036806;28;20181;-75
2021/12/27 08:44:33;;;;;;;48.43;21.47;;;;;;;;;;5036364;28;20181;-75
2021/12/27 08:46:58;;;;;;;70.90;25.23;;;;;;;;;;5038485;28;20186;-75
2021/12/27 08:49:23;;;;;;;66.63;24.17;;;;;;;;;;5033482;28;20785;-75
2021/12/27 08:51:49;;;;;;;75.40;24.60;;;;;;;;;;5037100;28;20202;-75
2021/12/27 08:54:14;;;;;;;75.53;24.57;;;;;;;;;;5034580;28;20269;-75
2021/12/27 08:56:40;;;;;;;56.27;22.57;;;;;;;;;;5038366;28;20192;-75
2021/12/27 08:59:06;;;;;;;66.17;23.13;;;;;;;;;;5038588;28;20202;-75
2021/12/27 09:01:31;;;;;;;62.50;23.13;;;;;;;;;;5038071;28;20215;-75
2021/12/27 09:03:56;;;;;;;73.60;24.50;;;;;;;;;;5041633;28;20200;-75
2021/12/27 09:06:22;;;;;;;37.93;20.97;;;;;;;;;;5037747;28;20178;-75
2021/12/27 09:08:47;;;;;;;50.53;23.20;;;;;;;;;;5037709;28;20278;-75
2021/12/27 09:11:12;;;;;;;45.30;22.33;;;;;;;;;;5037417;28;20197;-75
2021/12/27 09:13:37;;;;;;;55.00;22.37;;;;;;;;;;5039386;28;20832;-75
2021/12/27 09:16:03;;;;;;;53.43;22.63;;;;;;;;;;5037444;28;20184;-75
2021/12/27 09:18:28;;;;;;;52.80;21.77;;;;;;;;;;5040201;28;20213;-75
2021/12/27 09:20:54;;;;;;;46.27;21.80;;;;;;;;;;5037770;28;20826;-75
2021/12/27 09:23:19;;;;;;;48.93;22.17;;;;;;;;;;5030384;28;20186;-75
2021/12/27 09:25:45;;;;;;;58.23;22.93;;;;;;;;;;5036515;28;20239;-75
2021/12/27 09:28:10;;;;;;;44.27;21.83;;;;;;;;;;5029086;28;20184;-75
2021/12/27 09:30:36;;;;;;;71.47;23.57;;;;;;;;;;5037481;28;20206;-75
2021/12/27 09:33:02;;;;;;;70.70;25.07;;;;;;;;;;5036724;28;20189;-75
2021/12/27 09:35:27;;;;;;;63.00;23.97;;;;;;;;;;5036482;28;20229;-75
2021/12/27 09:37:52;;;;;;;55.73;21.27;;;;;;;;;;5037703;28;20216;-75
2021/12/27 09:40:18;;;;;;;58.30;22.03;;;;;;;;;;5036651;28;21491;-75
2021/12/27 09:42:43;;;;;;;75.27;24.50;;;;;;;;;;5036435;28;20252;-74
2021/12/27 09:45:08;;;;;;;41.37;21.70;;;;;;;;;;5037315;28;20261;-75
2021/12/27 09:47:33;;;;;;;46.87;23.37;;;;;;;;;;5037249;28;20200;-74
2021/12/27 09:49:59;;;;;;;42.77;21.37;;;;;;;;;;5040020;28;20201;-74
2021/12/27 09:52:24;;;;;;;58.20;22.40;;;;;;;;;;5037448;28;20193;-75
2021/12/27 09:54:49;;;;;;;48.37;20.13;;;;;;;;;;5036806;28;20189;-75
2021/12/27 09:57:14;;;;;;;42.27;20.73;;;;;;;;;;5036019;28;20197;-75
2021/12/27 09:59:40;;;;;;;35.80;21.53;;;;;;;;;;5036734;28;20746;-74
2021/12/27 10:02:05;;;;;;;50.30;20.90;;;;;;;;;;5035982;28;20185;-75
2021/12/27 10:04:31;;;;;;;42.20;20.23;;;;;;;;;;5039344;28;20187;-75
2021/12/27 10:06:56;;;;;;;39.73;20.17;;;;;;;;;;5037460;28;20182;-75
2021/12/27 10:09:22;;;;;;;49.60;19.73;;;;;;;;;;5037229;28;20573;-75
2021/12/27 10:11:47;;;;;;;41.03;19.07;;;;;;;;;;5033637;28;20205;-75
2021/12/27 10:14:19;;;;;;;45.80;20.13;;;;;;;;;;5036059;28;20194;-74
2021/12/27 10:16:45;;;;;;;44.97;21.63;;;;;;;;;;5037908;28;20257;-75
2021/12/27 10:19:11;;;;;;;44.85;20.35;;;;;;;;;;5036499;28;20216;-75
2021/12/27 10:21:41;;;;;;;36.30;20.40;;;;;;;;;;5036551;28;20205;-75
2021/12/27 10:24:12;;;;;;;34.43;18.60;;;;;;;;;;5034469;28;20177;-75
2021/12/27 10:26:37;;;;;;;45.37;21.20;;;;;;;;;;5036043;28;20251;-75
2021/12/27 10:29:06;;;;;;;35.87;18.20;;;;;;;;;;5036360;28;20405;-75
2021/12/27 10:31:52;;;;;;;36.97;18.53;;;;;;;;;;5035137;28;20230;-75
2021/12/27 10:34:17;;;;;;;36.67;18.80;;;;;;;;;;5033363;28;21638;-75
2021/12/27 10:36:59;;;;;;;28.60;17.03;;;;;;;;;;5033697;28;20195;-75
2021/12/27 10:39:28;;;;;;;30.80;17.60;;;;;;;;;;5034030;28;20310;-75
2021/12/27 10:41:53;;;;;;;30.33;16.57;;;;;;;;;;5033452;28;20377;-75
2021/12/27 10:44:18;;;;;;;23.70;15.30;;;;;;;;;;5035190;28;20210;-75
2021/12/27 10:46:43;;;;;;;36.87;17.07;;;;;;;;;;5032156;28;20327;-75
2021/12/27 10:49:09;;;;;;;46.97;16.37;;;;;;;;;;5030721;28;20185;-75
2021/12/27 10:51:34;;;;;;;37.07;16.70;;;;;;;;;;5036461;28;20755;-75
2021/12/27 10:54:00;;;;;;;45.03;17.53;;;;;;;;;;5035253;28;20182;-75
2021/12/27 10:56:27;;;;;;;41.87;17.47;;;;;;;;;;5035916;28;20226;-75
2021/12/27 10:58:53;;;;;;;30.63;17.13;;;;;;;;;;5031314;28;20323;-75
2021/12/27 11:01:20;;;;;;;28.80;15.90;;;;;;;;;;5038072;28;20212;-75
2021/12/27 11:03:46;;;;;;;31.43;16.53;;;;;;;;;;5032946;28;20234;-75
2021/12/27 11:06:13;;;;;;;35.20;15.97;;;;;;;;;;5034263;28;20190;-75
2021/12/27 11:08:41;;;;;;;28.73;15.43;;;;;;;;;;5037237;28;20279;-75
2021/12/27 11:11:07;;;;;;;31.17;16.27;;;;;;;;;;5036995;28;20307;-75
2021/12/27 11:13:33;;;;;;;25.93;16.27;;;;;;;;;;5036743;28;20181;-75
2021/12/27 11:15:58;;;;;;;27.10;17.50;;;;;;;;;;5034775;28;20628;-75
2021/12/27 11:18:24;;;;;;;30.27;17.73;;;;;;;;;;5036926;28;21710;-75
2021/12/27 11:20:52;;;;;;;27.87;17.57;;;;;;;;;;5036685;28;20566;-75
2021/12/27 11:23:19;;;;;;;24.23;16.27;;;;;;;;;;5034355;28;20189;-75
2021/12/27 11:25:45;;;;;;;22.80;17.30;;;;;;;;;;5035058;28;20235;-75
2021/12/27 11:28:29;;;;;;;22.07;16.80;;;;;;;;;;5036031;28;20189;-75
2021/12/27 11:30:54;;;;;;;24.53;16.33;;;;;;;;;;5033351;28;20220;-75
2021/12/27 11:33:22;;;;;;;21.43;15.83;;;;;;;;;;5035824;28;20263;-75
2021/12/27 11:35:50;;;;;;;20.80;16.77;;;;;;;;;;5037353;28;20182;-76
2021/12/27 11:38:26;;;;;;;20.47;14.77;;;;;;;;;;5032100;28;20315;-76
2021/12/27 11:40:51;;;;;;;18.03;14.27;;;;;;;;;;5035021;28;20285;-75
2021/12/27 11:43:17;;;;;;;17.10;13.30;;;;;;;;;;5032575;28;20174;-75
2021/12/27 11:45:53;;;;;;;19.80;15.17;;;;;;;;;;5036236;28;20219;-76
2021/12/27 11:48:19;;;;;;;18.97;14.20;;;;;;;;;;5030176;28;20186;-75
2021/12/27 11:51:00;;;;;;;17.63;13.47;;;;;;;;;;5033864;28;20204;-74
2021/12/27 11:53:29;;;;;;;22.00;14.43;;;;;;;;;;5036802;28;20292;-76
2021/12/27 11:55:54;;;;;;;19.90;14.17;;;;;;;;;;5035952;28;20186;-74
2021/12/27 11:58:39;;;;;;;17.03;13.60;;;;;;;;;;5031291;28;20204;-75
2021/12/27 12:01:05;;;;;;;19.53;13.57;;;;;;;;;;5033057;28;20706;-76
2021/12/27 12:03:37;;;;;;;16.77;14.03;;;;;;;;;;5036107;28;20301;-76
2021/12/27 12:06:03;;;;;;;17.40;12.50;;;;;;;;;;5038488;28;20176;-75
2021/12/27 12:08:28;;;;;;;20.37;14.63;;;;;;;;;;5035557;28;22331;-75
2021/12/27 12:10:57;;;;;;;17.13;13.35;;;;;;;;;;5035370;28;20240;-77
2021/12/27 12:13:39;;;;;;;17.23;12.83;;;;;;;;;;5033597;28;20197;-76
2021/12/27 12:16:06;;;;;;;30.37;15.47;;;;;;;;;;5034748;28;20188;-76
2021/12/27 12:18:32;;;;;;;18.10;13.10;;;;;;;;;;5034857;28;20688;-76
2021/12/27 12:20:58;;;;;;;17.80;13.83;;;;;;;;;;5036960;28;20229;-75
2021/12/27 12:23:24;;;;;;;15.30;13.10;;;;;;;;;;5033142;28;20264;-75
2021/12/27 12:25:56;;;;;;;16.63;12.20;;;;;;;;;;5035898;28;20180;-76
2021/12/27 12:28:21;;;;;;;18.70;13.93;;;;;;;;;;5037395;28;20173;-74
2021/12/27 12:30:47;;;;;;;13.70;12.17;;;;;;;;;;5035263;28;20212;-75
2021/12/27 12:33:12;;;;;;;14.67;12.27;;;;;;;;;;5034915;28;20286;-75
2021/12/27 12:35:41;;;;;;;17.03;12.13;;;;;;;;;;5038211;28;20186;-75
2021/12/27 12:38:17;;;;;;;15.83;12.40;;;;;;;;;;5039807;28;20197;-75
2021/12/27 12:40:43;;;;;;;15.70;11.17;;;;;;;;;;5035798;28;20192;-75
2021/12/27 12:43:08;;;;;;;11.90;10.60;;;;;;;;;;5038223;28;20186;-75
2021/12/27 12:45:34;;;;;;;17.53;11.07;;;;;;;;;;5032887;28;21644;-75
2021/12/27 12:47:59;;;;;;;13.27;11.30;;;;;;;;;;5038011;28;20181;-74
2021/12/27 12:50:25;;;;;;;17.37;12.10;;;;;;;;;;5035773;28;20214;-75
2021/12/27 12:52:50;;;;;;;13.33;9.97;;;;;;;;;;5035862;28;20239;-74
2021/12/27 12:55:19;;;;;;;11.40;9.47;;;;;;;;;;5034567;28;20650;-74
2021/12/27 12:57:48;;;;;;;14.03;10.77;;;;;;;;;;5038358;28;20196;-74
2021/12/27 13:00:13;;;;;;;12.87;10.73;;;;;;;;;;5040018;28;20272;-75
2021/12/27 13:02:41;;;;;;;12.00;9.83;;;;;;;;;;5037718;28;20190;-75
2021/12/27 13:05:08;;;;;;;11.90;10.37;;;;;;;;;;5038668;28;20178;-74
2021/12/27 13:07:33;;;;;;;11.13;9.47;;;;;;;;;;5045426;28;20180;-77
2021/12/27 13:09:59;;;;;;;12.67;10.80;;;;;;;;;;5037748;28;20193;-74
2021/12/27 13:12:27;;;;;;;11.73;9.57;;;;;;;;;;5035768;28;20223;-75
2021/12/27 13:14:52;;;;;;;11.00;9.80;;;;;;;;;;5035721;28;20216;-74
2021/12/27 13:17:20;;;;;;;13.40;9.17;;;;;;;;;;5038766;28;20268;-76
2021/12/27 13:19:57;;;;;;;13.17;9.23;;;;;;;;;;5037849;28;21545;-74
2021/12/27 13:22:49;;;;;;;12.30;10.40;;;;;;;;;;5036290;28;20704;-76
2021/12/27 13:25:27;;;;;;;11.93;9.97;;;;;;;;;;5042896;28;20189;-75
2021/12/27 13:28:03;;;;;;;12.80;10.43;;;;;;;;;;5036937;28;20222;-75
2021/12/27 13:30:28;;;;;;;12.57;10.47;;;;;;;;;;5040310;28;20560;-76
2021/12/27 13:32:53;;;;;;;13.20;10.27;;;;;;;;;;5034880;28;20192;-75
2021/12/27 13:35:19;;;;;;;13.00;10.30;;;;;;;;;;5040952;28;20238;-75
2021/12/27 13:37:45;;;;;;;11.87;10.47;;;;;;;;;;5034786;28;20209;-76
2021/12/27 13:40:14;;;;;;;12.20;9.80;;;;;;;;;;5035281;28;20209;-76
2021/12/27 13:42:39;;;;;;;11.53;9.60;;;;;;;;;;5031816;28;20191;-77
2021/12/27 13:45:09;;;;;;;11.37;10.07;;;;;;;;;;5036619;28;20182;-77
2021/12/27 13:47:34;;;;;;;11.03;9.80;;;;;;;;;;5036414;28;20267;-76
2021/12/27 13:50:00;;;;;;;10.80;9.70;;;;;;;;;;5042041;28;20300;-76
2021/12/27 13:52:25;;;;;;;13.90;9.90;;;;;;;;;;5033516;28;20557;-76
2021/12/27 13:54:53;;;;;;;13.13;9.90;;;;;;;;;;5036599;28;20209;-76
2021/12/27 13:57:19;;;;;;;13.00;10.00;;;;;;;;;;5037764;28;20185;-76
2021/12/27 13:59:47;;;;;;;11.57;10.00;;;;;;;;;;5047161;28;20706;-75
2021/12/27 14:02:12;;;;;;;12.43;10.03;;;;;;;;;;5042386;28;20181;-76
2021/12/27 14:04:37;;;;;;;11.00;9.80;;;;;;;;;;5041592;28;20654;-76
2021/12/27 14:07:05;;;;;;;10.87;9.40;;;;;;;;;;5037580;28;20185;-75
2021/12/27 14:09:31;;;;;;;13.17;10.37;;;;;;;;;;5038321;28;20692;-75
2021/12/27 14:11:59;;;;;;;14.93;11.90;;;;;;;;;;5041509;28;20276;-75
2021/12/27 14:14:40;;;;;;;10.50;9.50;;;;;;;;;;5037219;28;20182;-76
2021/12/27 14:17:07;;;;;;;10.90;9.10;;;;;;;;;;5037755;28;20636;-78
2021/12/27 14:19:33;;;;;;;13.43;10.73;;;;;;;;;;5038006;28;20220;-76